createdAt,value
2022-12-12T00:01:33.114Z,52.30
2022-12-12T00:04:02.165Z,53.45
2022-12-12T00:06:31.117Z,55.10
2022-12-12T00:08:59.814Z,54.55
2022-12-12T00:11:29.126Z,40.20
2022-12-12T00:13:59.223Z,46.63
2022-12-12T00:16:30.053Z,45.65
2022-12-12T00:18:58.673Z,40.05
2022-12-12T00:21:30.307Z,48.60
2022-12-12T00:23:59.323Z,39.95
2022-12-12T00:26:30.395Z,37.90
2022-12-12T00:29:01.077Z,40.05
2022-12-12T00:31:30.066Z,43.13
2022-12-12T00:33:58.654Z,55.97
2022-12-12T00:36:30.409Z,41.03
2022-12-12T00:38:59.367Z,37.28
2022-12-12T00:41:28.154Z,32.50
2022-12-12T00:43:56.584Z,25.73
2022-12-12T00:46:26.946Z,32.50
2022-12-12T00:48:56.946Z,42.28
2022-12-12T00:51:28.030Z,31.60
2022-12-12T00:53:57.807Z,32.63
2022-12-12T00:56:27.692Z,29.17
2022-12-12T00:58:55.982Z,31.40
2022-12-12T01:01:29.536Z,30.58
2022-12-12T01:03:59.738Z,32.28
2022-12-12T01:06:29.746Z,35.50
2022-12-12T01:08:58.589Z,34.95
2022-12-12T01:11:27.463Z,36.15
2022-12-12T01:13:57.112Z,28.58
2022-12-12T01:16:27.449Z,36.28
2022-12-12T01:18:55.779Z,42.42
2022-12-12T01:21:24.438Z,31.55
2022-12-12T01:23:52.934Z,37.13
2022-12-12T01:26:23.535Z,29.83
2022-12-12T01:28:52.009Z,28.10
2022-12-12T01:31:20.855Z,28.48
2022-12-12T01:33:51.072Z,26.00
2022-12-12T01:36:23.405Z,25.90
2022-12-12T01:38:55.111Z,24.00
2022-12-12T01:41:23.851Z,23.17
2022-12-12T01:43:52.764Z,30.23
2022-12-12T01:46:45.541Z,20.77
2022-12-12T01:49:26.137Z,27.73
2022-12-12T01:52:01.618Z,24.38
2022-12-12T01:54:35.234Z,22.70
2022-12-12T01:57:11.332Z,24.37
2022-12-12T01:59:40.792Z,29.00
2022-12-12T02:02:10.686Z,20.15
2022-12-12T02:04:40.713Z,19.27
2022-12-12T02:07:09.287Z,25.73
2022-12-12T02:09:38.879Z,20.58
2022-12-12T02:12:08.210Z,29.92
2022-12-12T02:14:41.587Z,26.90
2022-12-12T02:17:39.138Z,23.77
2022-12-12T02:21:00.164Z,28.25
2022-12-12T02:24:31.127Z,20.00
2022-12-12T02:27:23.039Z,15.90
2022-12-12T02:30:20.443Z,19.73
2022-12-12T02:33:20.912Z,22.67
2022-12-12T02:36:04.011Z,17.42
2022-12-12T02:38:41.484Z,25.83
2022-12-12T02:41:23.791Z,26.63
2022-12-12T02:44:07.563Z,29.77
2022-12-12T02:46:42.649Z,28.75
2022-12-12T02:49:18.738Z,37.72
2022-12-12T02:51:49.990Z,32.92
2022-12-12T02:54:21.789Z,39.88
2022-12-12T02:56:55.586Z,38.15
2022-12-12T02:59:30.341Z,33.17
2022-12-12T03:02:53.053Z,26.15
2022-12-12T03:06:00.709Z,41.95
2022-12-12T03:08:49.902Z,35.97
2022-12-12T03:11:28.952Z,29.80
2022-12-12T03:14:08.260Z,24.65
2022-12-12T03:16:45.702Z,29.23
2022-12-12T03:19:23.345Z,31.20
2022-12-12T03:21:56.746Z,31.20
2022-12-12T03:24:34.092Z,31.38
2022-12-12T03:27:08.671Z,32.10
2022-12-12T03:29:44.811Z,36.90
2022-12-12T03:32:18.677Z,35.45
2022-12-12T03:34:53.210Z,48.67
2022-12-12T03:39:59.396Z,40.88
2022-12-12T03:42:36.012Z,35.50
2022-12-12T03:45:08.896Z,45.70
2022-12-12T03:47:43.300Z,45.85
2022-12-12T03:52:54.130Z,32.58
2022-12-12T03:55:28.485Z,30.55
2022-12-12T04:00:33.002Z,41.55
2022-12-12T04:03:11.586Z,41.97
2022-12-12T04:06:02.058Z,30.45
2022-12-12T04:08:32.723Z,40.30
2022-12-12T04:11:26.219Z,49.28
2022-12-12T04:14:06.663Z,41.95
2022-12-12T04:16:41.132Z,51.38
2022-12-12T04:19:37.835Z,46.47
2022-12-12T04:22:27.537Z,37.63
2022-12-12T04:25:04.860Z,32.35
2022-12-12T04:27:40.471Z,48.40
2022-12-12T04:30:12.192Z,46.17
2022-12-12T04:32:45.967Z,51.65
2022-12-12T04:35:18.174Z,42.45
2022-12-12T04:37:50.616Z,50.63
2022-12-12T04:40:26.136Z,48.38
2022-12-12T04:42:59.218Z,53.65
2022-12-12T04:45:32.586Z,43.20
2022-12-12T04:48:03.022Z,46.78
2022-12-12T04:50:34.219Z,40.53
2022-12-12T04:53:13.347Z,40.42
2022-12-12T04:55:50.188Z,41.47
2022-12-12T04:58:19.043Z,45.45
2022-12-12T05:00:58.263Z,36.50
2022-12-12T05:03:37.163Z,36.67
2022-12-12T05:06:11.660Z,38.25
2022-12-12T05:11:13.433Z,22.60
2022-12-12T05:13:44.175Z,38.95
2022-12-12T05:16:19.760Z,34.28
2022-12-12T05:18:48.826Z,36.38
2022-12-12T05:21:17.658Z,32.70
2022-12-12T05:23:46.011Z,43.70
2022-12-12T05:26:22.939Z,43.45
2022-12-12T05:28:52.083Z,41.72
2022-12-12T05:31:21.075Z,29.77
2022-12-12T05:33:50.625Z,32.42
2022-12-12T05:36:19.621Z,40.67
2022-12-12T05:38:48.275Z,39.88
2022-12-12T05:41:18.111Z,42.70
2022-12-12T05:43:46.668Z,49.10
2022-12-12T05:46:15.751Z,39.80
2022-12-12T05:48:44.462Z,29.08
2022-12-12T05:51:12.769Z,47.08
2022-12-12T05:53:43.233Z,30.88
2022-12-12T05:56:12.686Z,39.95
2022-12-12T05:58:43.099Z,28.38
2022-12-12T06:01:12.098Z,52.03
2022-12-12T06:03:40.684Z,34.72
2022-12-12T06:06:09.988Z,45.97
2022-12-12T06:08:38.580Z,33.78
2022-12-12T06:11:07.974Z,38.17
2022-12-12T06:13:37.627Z,45.58
2022-12-12T06:16:10.019Z,33.15
2022-12-12T06:18:38.687Z,40.00
2022-12-12T06:21:09.223Z,32.70
2022-12-12T06:23:38.839Z,33.08
2022-12-12T06:26:08.897Z,29.95
2022-12-12T06:28:37.948Z,41.85
2022-12-12T06:31:11.886Z,18.52
2022-12-12T06:36:12.871Z,21.48
2022-12-12T06:38:42.238Z,37.53
2022-12-12T06:41:12.785Z,42.25
2022-12-12T06:43:42.122Z,36.88
2022-12-12T06:46:16.722Z,39.25
2022-12-12T06:48:45.797Z,39.97
2022-12-12T06:51:17.824Z,41.72
2022-12-12T06:53:46.622Z,59.28
2022-12-12T06:56:18.249Z,42.38
2022-12-12T06:58:47.277Z,31.98
2022-12-12T07:01:19.818Z,39.67
2022-12-12T07:03:49.814Z,32.85
2022-12-12T07:06:18.874Z,45.58
2022-12-12T07:08:47.654Z,45.65
2022-12-12T07:11:19.782Z,36.92
2022-12-12T07:13:48.460Z,44.58
2022-12-12T07:16:18.447Z,38.83
2022-12-12T07:18:47.447Z,50.22
2022-12-12T07:21:19.023Z,42.97
2022-12-12T07:23:47.681Z,35.83
2022-12-12T07:26:19.250Z,33.72
2022-12-12T07:28:48.258Z,37.53
2022-12-12T07:31:21.187Z,34.50
2022-12-12T07:33:49.823Z,45.33
2022-12-12T07:36:18.805Z,39.88
2022-12-12T07:38:47.392Z,40.83
2022-12-12T07:41:18.660Z,40.78
2022-12-12T07:43:50.829Z,45.15
2022-12-12T07:46:23.839Z,44.88
2022-12-12T07:48:54.129Z,32.63
2022-12-12T07:51:23.863Z,43.88
2022-12-12T07:53:52.415Z,47.28
2022-12-12T07:56:21.356Z,48.50
2022-12-12T07:58:51.209Z,47.72
2022-12-12T08:01:24.784Z,45.88
2022-12-12T08:03:55.481Z,51.20
2022-12-12T08:06:24.787Z,42.90
2022-12-12T08:08:54.327Z,38.75
2022-12-12T08:11:24.870Z,53.00
2022-12-12T08:13:54.210Z,54.63
2022-12-12T08:16:26.467Z,55.97
2022-12-12T08:18:56.183Z,50.10
2022-12-12T08:21:26.706Z,46.95
2022-12-12T08:23:57.830Z,42.22
2022-12-12T08:26:27.040Z,55.38
2022-12-12T08:28:55.944Z,47.85
2022-12-12T08:31:26.563Z,45.60
2022-12-12T08:33:56.071Z,41.08
2022-12-12T08:36:27.196Z,49.05
2022-12-12T08:38:56.065Z,61.97
2022-12-12T08:41:25.047Z,42.63
2022-12-12T08:43:53.779Z,45.97
2022-12-12T08:46:23.210Z,43.58
2022-12-12T08:48:53.025Z,56.72
2022-12-12T08:51:21.649Z,70.22
2022-12-12T08:53:52.773Z,44.55
2022-12-12T08:56:22.805Z,43.55
2022-12-12T08:58:52.715Z,48.42
2022-12-12T09:01:23.287Z,49.55
2022-12-12T09:03:55.302Z,42.00
2022-12-12T09:06:24.563Z,45.58
2022-12-12T09:08:53.624Z,44.83
2022-12-12T09:11:22.326Z,51.22
2022-12-12T09:13:50.811Z,52.67
2022-12-12T09:16:21.779Z,44.45
2022-12-12T09:18:51.778Z,50.50
2022-12-12T09:21:21.508Z,44.10
2022-12-12T09:23:50.514Z,50.55
2022-12-12T09:26:19.075Z,39.33
2022-12-12T09:28:47.570Z,35.55
2022-12-12T09:31:15.957Z,41.50
2022-12-12T09:33:44.720Z,46.33
2022-12-12T09:36:14.941Z,47.60
2022-12-12T09:38:43.855Z,50.70
2022-12-12T09:41:16.932Z,50.03
2022-12-12T09:43:54.256Z,41.30
2022-12-12T09:46:37.591Z,35.97
2022-12-12T09:49:15.490Z,40.75
2022-12-12T09:51:49.332Z,34.90
2022-12-12T09:54:20.850Z,46.75
2022-12-12T09:57:17.487Z,46.95
2022-12-12T09:59:52.552Z,43.80
2022-12-12T10:02:49.261Z,51.85
2022-12-12T10:05:30.214Z,42.05
2022-12-12T10:08:11.554Z,32.67
2022-12-12T10:10:42.807Z,41.03
2022-12-12T10:13:17.884Z,42.75
2022-12-12T10:15:50.283Z,43.78
2022-12-12T10:18:28.109Z,52.00
2022-12-12T10:21:00.816Z,37.63
2022-12-12T10:23:38.823Z,52.97
2022-12-12T10:26:12.851Z,30.70
2022-12-12T10:28:41.597Z,37.55
2022-12-12T10:31:30.123Z,41.13
2022-12-12T10:34:25.756Z,43.80
2022-12-12T10:37:14.398Z,39.05
2022-12-12T10:40:00.713Z,28.85
2022-12-12T10:42:36.322Z,44.60
2022-12-12T10:45:27.787Z,44.97
2022-12-12T10:47:56.399Z,50.55
2022-12-12T10:50:29.919Z,37.03
2022-12-12T10:52:58.532Z,43.25
2022-12-12T10:55:40.138Z,36.13
2022-12-12T10:58:08.844Z,40.45
2022-12-12T11:00:41.306Z,37.35
2022-12-12T11:03:24.818Z,44.75
2022-12-12T11:05:53.786Z,43.45
2022-12-12T11:08:28.411Z,47.65
2022-12-12T11:11:07.327Z,41.35
2022-12-12T11:13:46.443Z,42.97
2022-12-12T11:16:18.660Z,48.28
2022-12-12T11:19:06.468Z,38.72
2022-12-12T11:21:37.709Z,38.40
2022-12-12T11:24:13.810Z,49.78
2022-12-12T11:26:47.499Z,49.25
2022-12-12T11:29:37.236Z,50.73
2022-12-12T11:32:06.778Z,46.25
2022-12-12T11:34:38.343Z,40.65
2022-12-12T11:37:07.402Z,49.42
2022-12-12T11:39:43.467Z,47.92
2022-12-12T11:42:25.602Z,44.78
2022-12-12T11:45:04.643Z,42.20
2022-12-12T11:47:40.841Z,53.88
2022-12-12T11:50:22.574Z,51.72
2022-12-12T11:52:54.603Z,43.88
2022-12-12T11:55:37.443Z,49.42
2022-12-12T11:58:19.744Z,46.83
2022-12-12T12:00:58.448Z,51.67
2022-12-12T12:03:45.597Z,50.28
2022-12-12T12:06:36.084Z,50.50
2022-12-12T12:09:23.378Z,46.63
2022-12-12T12:12:01.634Z,30.70
2022-12-12T12:15:00.541Z,34.90
2022-12-12T12:17:55.337Z,32.00
2022-12-12T12:20:38.459Z,34.08
2022-12-12T12:23:21.640Z,33.60
2022-12-12T12:25:56.317Z,36.38
2022-12-12T12:29:05.149Z,42.90
2022-12-12T12:31:47.284Z,35.88
2022-12-12T12:34:25.922Z,53.60
2022-12-12T12:37:11.515Z,33.95
2022-12-12T12:39:59.015Z,41.03
2022-12-12T12:42:49.448Z,41.58
2022-12-12T12:45:28.598Z,39.25
2022-12-12T12:48:10.344Z,41.50
2022-12-12T12:50:44.891Z,33.33
2022-12-12T12:53:26.685Z,32.25
2022-12-12T12:56:02.245Z,32.92
2022-12-12T12:58:37.335Z,37.45
2022-12-12T13:01:10.853Z,34.78
2022-12-12T13:03:49.007Z,44.75
2022-12-12T13:06:24.280Z,36.50
2022-12-12T13:09:03.158Z,36.42
2022-12-12T13:11:37.785Z,27.65
2022-12-12T13:14:17.919Z,34.58
2022-12-12T13:16:46.741Z,39.60
2022-12-12T13:19:29.074Z,32.28
2022-12-12T13:22:05.036Z,44.40
2022-12-12T13:24:40.169Z,34.80
2022-12-12T13:27:21.875Z,36.03
2022-12-12T13:29:55.747Z,41.70
2022-12-12T13:33:13.126Z,44.17
2022-12-12T13:35:47.491Z,34.92
2022-12-12T13:38:23.685Z,38.85
2022-12-12T13:40:59.485Z,38.50
2022-12-12T13:43:41.021Z,37.00
2022-12-12T13:46:39.512Z,28.17
2022-12-12T13:49:28.133Z,40.28
2022-12-12T13:52:24.925Z,35.55
2022-12-12T13:55:18.168Z,29.90
2022-12-12T13:58:36.951Z,36.10
2022-12-12T14:01:39.092Z,31.80
2022-12-12T14:04:24.300Z,25.05
2022-12-12T14:07:01.605Z,34.47
2022-12-12T14:09:47.925Z,26.52
2022-12-12T14:12:26.117Z,33.70
2022-12-12T14:15:00.683Z,34.80
2022-12-12T14:17:38.368Z,35.83
2022-12-12T14:20:32.352Z,26.38
2022-12-12T14:23:28.958Z,29.17
2022-12-12T14:25:59.908Z,29.83
2022-12-12T14:28:31.499Z,32.28
2022-12-12T14:31:18.035Z,29.17
2022-12-12T14:34:17.326Z,31.05
2022-12-12T14:37:17.145Z,31.55
2022-12-12T14:39:58.087Z,26.80
2022-12-12T14:43:20.356Z,30.63
2022-12-12T14:45:38.275Z,28.67
2022-12-12T14:48:19.684Z,32.80
2022-12-12T14:50:56.474Z,27.27
2022-12-12T14:53:28.706Z,31.88
2022-12-12T14:56:01.479Z,26.02
2022-12-12T14:58:35.264Z,29.52
2022-12-12T15:01:07.246Z,32.08
2022-12-12T15:03:40.138Z,29.40
2022-12-12T15:06:33.911Z,31.98
2022-12-12T15:09:25.991Z,43.25
2022-12-12T15:12:20.298Z,40.05
2022-12-12T15:14:58.395Z,41.28
2022-12-12T15:17:30.346Z,33.08
2022-12-12T15:20:01.763Z,33.00
2022-12-12T15:22:33.447Z,32.10
2022-12-12T15:25:05.448Z,35.90
2022-12-12T15:27:47.065Z,33.17
2022-12-12T15:30:28.708Z,30.98
2022-12-12T15:32:58.628Z,24.55
2022-12-12T15:35:27.733Z,31.92
2022-12-12T15:37:57.815Z,29.55
2022-12-12T15:40:30.732Z,35.90
2022-12-12T15:43:03.341Z,28.73
2022-12-12T15:45:35.351Z,32.22
2022-12-12T15:48:05.538Z,26.55
2022-12-12T15:50:49.801Z,38.03
2022-12-12T15:53:22.956Z,39.13
2022-12-12T15:55:59.533Z,29.40
2022-12-12T15:58:33.404Z,24.05
2022-12-12T16:01:20.030Z,22.63
2022-12-12T16:03:59.356Z,22.73
2022-12-12T16:06:34.516Z,22.48
2022-12-12T16:09:09.395Z,19.52
2022-12-12T16:11:42.020Z,22.35
2022-12-12T16:14:43.215Z,25.20
2022-12-12T16:17:16.860Z,19.17
2022-12-12T16:19:48.851Z,19.23
2022-12-12T16:22:34.375Z,20.02
2022-12-12T16:25:19.394Z,23.63
2022-12-12T16:27:52.375Z,22.13
2022-12-12T16:30:22.336Z,22.65
2022-12-12T16:32:51.137Z,28.88
2022-12-12T16:35:23.255Z,26.40
2022-12-12T16:37:53.297Z,27.42
2022-12-12T16:40:23.252Z,36.20
2022-12-12T16:42:56.253Z,25.25
2022-12-12T16:45:26.101Z,28.58
2022-12-12T16:47:55.215Z,30.27
2022-12-12T16:50:23.839Z,54.58
2022-12-12T16:52:53.089Z,35.30
2022-12-12T16:55:24.607Z,33.35
2022-12-12T16:57:53.200Z,22.02
2022-12-12T17:00:21.859Z,25.23
2022-12-12T17:02:51.480Z,25.83
2022-12-12T17:05:24.379Z,38.97
2022-12-12T17:07:54.004Z,41.75
2022-12-12T17:10:25.278Z,39.25
2022-12-12T17:12:54.431Z,23.63
2022-12-12T17:15:26.948Z,20.60
2022-12-12T17:17:56.908Z,17.02
2022-12-12T17:20:26.721Z,20.88
2022-12-12T17:22:55.288Z,18.02
2022-12-12T17:25:23.944Z,17.35
2022-12-12T17:27:53.468Z,22.35
2022-12-12T17:30:22.671Z,27.88
2022-12-12T17:35:38.839Z,18.13
2022-12-12T17:38:12.931Z,17.73
2022-12-12T17:40:44.935Z,21.25
2022-12-12T17:43:13.488Z,39.42
2022-12-12T17:45:42.124Z,31.58
2022-12-12T17:48:10.994Z,26.88
2022-12-12T17:50:41.968Z,24.00
2022-12-12T17:53:12.847Z,20.73
2022-12-12T17:55:51.445Z,17.42
2022-12-12T17:58:29.622Z,19.90
2022-12-12T18:00:58.667Z,19.52
2022-12-12T18:03:27.252Z,18.70
2022-12-12T18:06:00.427Z,18.77
2022-12-12T18:08:29.017Z,16.52
2022-12-12T18:10:57.621Z,16.05
2022-12-12T18:13:26.610Z,21.05
2022-12-12T18:15:56.366Z,24.80
2022-12-12T18:18:26.199Z,16.00
2022-12-12T18:20:56.052Z,14.15
2022-12-12T18:23:24.562Z,13.30
2022-12-12T18:25:53.035Z,15.38
2022-12-12T18:28:21.532Z,20.95
2022-12-12T18:30:50.447Z,14.25
2022-12-12T18:33:18.656Z,20.90
2022-12-12T18:35:47.275Z,17.33
2022-12-12T18:38:17.469Z,20.77
2022-12-12T18:40:45.664Z,18.10
2022-12-12T18:43:13.851Z,11.90
2022-12-12T18:45:42.436Z,12.23
2022-12-12T18:48:11.436Z,13.15
2022-12-12T18:50:39.643Z,22.35
2022-12-12T18:53:08.607Z,18.30
2022-12-12T18:55:42.160Z,19.67
2022-12-12T18:58:11.660Z,11.70
2022-12-12T19:00:40.899Z,14.73
2022-12-12T19:03:10.221Z,23.80
2022-12-12T19:05:43.600Z,19.63
2022-12-12T19:08:12.254Z,16.70
2022-12-12T19:10:42.133Z,19.08
2022-12-12T19:13:10.710Z,19.83
2022-12-12T19:15:39.198Z,25.70
2022-12-12T19:18:07.606Z,17.05
2022-12-12T19:20:37.268Z,10.85
2022-12-12T19:23:05.820Z,14.27
2022-12-12T19:25:40.871Z,11.35
2022-12-12T19:28:12.516Z,13.90
2022-12-12T19:30:41.624Z,11.88
2022-12-12T19:33:09.853Z,14.65
2022-12-12T19:35:38.604Z,15.90
2022-12-12T19:38:07.184Z,21.52
2022-12-12T19:40:35.675Z,22.30
2022-12-12T19:43:04.286Z,35.85
2022-12-12T19:45:33.843Z,28.58
2022-12-12T19:48:02.419Z,39.38
2022-12-12T19:50:30.959Z,28.85
2022-12-12T19:53:00.309Z,30.30
2022-12-12T19:55:28.832Z,28.23
2022-12-12T19:57:57.052Z,33.70
2022-12-12T20:00:25.929Z,36.58
2022-12-12T20:02:55.535Z,37.92
2022-12-12T20:05:24.198Z,30.73
2022-12-12T20:07:52.601Z,28.52
2022-12-12T20:10:21.126Z,22.40
2022-12-12T20:12:58.309Z,17.13
2022-12-12T20:15:27.275Z,18.92
2022-12-12T20:18:00.178Z,22.23
2022-12-12T20:20:28.878Z,16.67
2022-12-12T20:22:57.367Z,25.75
2022-12-12T20:25:26.238Z,16.80
2022-12-12T20:27:54.746Z,11.02
2022-12-12T20:30:23.032Z,15.48
2022-12-12T20:32:51.749Z,14.88
2022-12-12T20:35:21.468Z,14.43
2022-12-12T20:37:50.391Z,12.18
2022-12-12T20:40:19.348Z,13.52
2022-12-12T20:42:54.952Z,17.13
2022-12-12T20:45:25.594Z,15.45
2022-12-12T20:47:54.440Z,20.05
2022-12-12T20:50:24.040Z,20.30
2022-12-12T20:52:52.558Z,15.35
2022-12-12T20:55:21.076Z,17.63
2022-12-12T20:57:49.626Z,23.67
2022-12-12T21:00:18.989Z,15.15
2022-12-12T21:02:47.476Z,15.93
2022-12-12T21:05:16.505Z,21.15
2022-12-12T21:07:46.580Z,16.00
2022-12-12T21:10:15.804Z,13.95
2022-12-12T21:12:44.382Z,15.82
2022-12-12T21:15:13.218Z,11.93
2022-12-12T21:17:41.491Z,10.77
2022-12-12T21:20:10.703Z,11.30
2022-12-12T21:22:39.645Z,12.80
2022-12-12T21:25:09.567Z,9.10
2022-12-12T21:27:37.784Z,13.90
2022-12-12T21:30:07.408Z,14.20
2022-12-12T21:32:36.038Z,11.88
2022-12-12T21:35:04.650Z,18.90
2022-12-12T21:37:37.257Z,9.85
2022-12-12T21:40:16.112Z,21.95
2022-12-12T21:42:44.899Z,19.23
2022-12-12T21:45:16.181Z,19.23
2022-12-12T21:47:45.100Z,10.07
2022-12-12T21:50:13.537Z,14.55
2022-12-12T21:52:41.932Z,11.35
2022-12-12T21:55:12.118Z,9.75
2022-12-12T21:57:40.790Z,9.57
2022-12-12T22:00:11.795Z,13.50
2022-12-12T22:02:43.702Z,14.20
2022-12-12T22:05:14.386Z,12.77
2022-12-12T22:07:43.108Z,14.60
2022-12-12T22:10:13.535Z,13.30
2022-12-12T22:12:41.802Z,12.35
2022-12-12T22:15:11.964Z,16.02
2022-12-12T22:17:40.680Z,9.27
2022-12-12T22:20:10.651Z,11.68
2022-12-12T22:22:39.168Z,10.77
2022-12-12T22:25:08.197Z,6.38
2022-12-12T22:27:37.991Z,11.35
2022-12-12T22:30:08.176Z,8.23
2022-12-12T22:32:36.664Z,17.02
2022-12-12T22:35:06.148Z,13.60
2022-12-12T22:37:34.640Z,9.18
2022-12-12T22:40:03.201Z,18.77
2022-12-12T22:42:31.961Z,15.05
2022-12-12T22:45:01.604Z,13.00
2022-12-12T22:47:30.211Z,16.08
2022-12-12T22:49:58.761Z,19.15
2022-12-12T22:52:28.606Z,14.30
2022-12-12T22:54:57.107Z,21.20
2022-12-12T22:57:25.679Z,17.67
2022-12-12T22:59:54.264Z,20.65
2022-12-12T23:02:25.326Z,39.20
2022-12-12T23:04:54.330Z,30.38
2022-12-12T23:07:22.992Z,29.15
2022-12-12T23:09:56.806Z,32.97
2022-12-12T23:12:25.391Z,18.58
2022-12-12T23:14:53.758Z,11.93
2022-12-12T23:17:24.058Z,22.63
2022-12-12T23:19:52.583Z,21.10
2022-12-12T23:22:21.136Z,16.42
2022-12-12T23:24:49.483Z,21.98
2022-12-12T23:27:18.206Z,23.08
2022-12-12T23:29:46.771Z,21.92
2022-12-12T23:32:15.487Z,19.23
2022-12-12T23:34:45.357Z,23.77
2022-12-12T23:37:13.596Z,18.40
2022-12-12T23:39:42.359Z,17.27
2022-12-12T23:42:10.863Z,18.65
2022-12-12T23:44:39.476Z,17.08
2022-12-12T23:47:07.708Z,14.18
2022-12-12T23:49:36.341Z,15.50
2022-12-12T23:52:06.639Z,15.25
2022-12-12T23:54:35.026Z,14.98
2022-12-12T23:57:04.300Z,13.05
2022-12-12T23:59:32.895Z,19.00
